KCMD

Cullman Regional-Folsom Field Airport

Cullman, Alabama, USA
METAR KCMD 141335Z AUTO 00000KT 10SM CLR 25/19 A3009 RMK AO2 T02480186
Observed Flight Rules
Aug-14 @ 13:35 UTC (6 minutes ago) Visual Flight Rules
Visibility Clouds
10 miles
  • Clear skies
Temperatures Readings
Current 25°C / 77°F
Dewpoint 19°C / 66°F
Humidity 69%
Altimeter 30.09" Hg
Pressure 1019 hPa
Elevation 294
METAR KCMD 141335Z AUTO 00000KT 10SM CLR 25/19 A3009 RMK AO2 T02480186
Observed Flight Rules
Aug-14 @ 13:35 UTC
(6 minutes ago)
VFR
Clouds
  • Clear skies
Temperature Dewpoint
25°C / 77°F 19°C / 66°F
Humidity Altimeter Pressure
69% 30.09" Hg 1019 hPa